Aérodrome :
LOGIN :

S'inscrire | Disclaimer

   EN    FR    IT 

 










Légende :    VFR   VFR Marginal   IFR   IFR Intensif   IFR Très Intensif
Visi : 
Plafond : 
>= 8 km
>= 3000ft
5 à 8 km
1000 à 3000 ft
1500m à 5 km
500 à 1000 ft
800 à 1500m
200 à 500 ft
< 800m
< 200 ft
Symboles :   Orages  Brouillard  Fortes neiges  Fortes précipitations  Vent > 20 kt
SIGMETs :   Divers  Orages  Givrage  Turbulence  Onde Orograph.  Cendres Volcan.






- Altitude de l'aérodrome : 313 ft
- Code IATA : LEH


LFOH - Le Havre Octeville

DERNIER METAR :
  • 140800Z AUTO 24015KT 9999 BKN038/// BKN044/// OVC090/// ///TCU 09/05 Q0996 TEMPO 28025G40KT SHRA BECMG BKN030

METARs EXPIRÉS :
  • 140730Z AUTO 27017KT 9999 SCT041 BKN049 BKN058 09/05 Q0996 TEMPO 28025G40KT SHRA
  • 140700Z AUTO 27023KT 9999 FEW031/// SCT044/// BKN076/// ///TCU 09/04 Q0995 TEMPO 28025G40KT SHRA BECMG BKN030
  • 140630Z AUTO 27021G31KT 9999 FEW038 OVC086 09/05 Q0995 TEMPO SHRA
  • 140600Z AUTO 28022G35KT CAVOK 09/04 Q0994

TAF TAF LFOH
Valide du 14 à 06h jusqu'au 15 à 06h UTC


140500Z 1406/1506 28020KT 9999 BKN030
TEMPO 1406/1415 28025G40KT SHRA
BECMG 1415/1418 20020KT
TEMPO 1420/1423 RA BKN013
TEMPO 1423/1506 25025G35KT SHRA BKN030TCU
TEMPO 1502/1504 25030G45KT
ATIS : +33 2 35 54 64 93



MET'MAP, la Météo Aéronautique d'un coup d'oeil ! - Copyright ORBIFLY Décembre 2007 - Disclaimer

ORBIFLY MET'MAP TEAM :

Programmation & Développement : Alexandra Zaïnal
Sur une idée originale de : Baudouin d'Aumeries
Assistance à la programmation : Marc-Olivier Méhu
Soutien technique & logistique : Manuel Goepfert

Contact : metmap@orbifly.com




SOURCES & CREDITS :

   NOAA